createdAt,value
2022-08-23T05:37:43.399Z,71.84
2022-08-23T05:40:09.854Z,69.21
2022-08-23T05:42:36.154Z,66.98
2022-08-23T05:45:02.669Z,67.24
2022-08-23T05:47:29.040Z,67.32
2022-08-23T05:49:55.431Z,67.76
2022-08-23T05:52:21.854Z,66.48
2022-08-23T05:54:48.209Z,63.31
2022-08-23T05:57:14.572Z,62.23
2022-08-23T05:59:40.968Z,62.17
2022-08-23T06:02:07.349Z,62.48
2022-08-23T06:04:33.829Z,61.08
2022-08-23T06:07:00.193Z,59.59
2022-08-23T06:09:26.586Z,57.74
2022-08-23T06:11:52.953Z,57.34
2022-08-23T06:14:19.383Z,55.99
2022-08-23T06:16:45.715Z,55.86
2022-08-23T06:19:12.115Z,55.68
2022-08-23T06:21:38.560Z,56.11
2022-08-23T06:24:04.922Z,55.73
2022-08-23T06:26:31.307Z,56.16
2022-08-23T06:28:57.793Z,54.43
2022-08-23T06:31:24.138Z,53.45
2022-08-23T06:33:50.550Z,50.47
2022-08-23T06:36:16.907Z,50.40
2022-08-23T06:38:43.280Z,49.63
2022-08-23T06:41:09.705Z,48.32
2022-08-23T06:43:36.137Z,47.41
2022-08-23T06:46:02.518Z,47.34
2022-08-23T06:48:28.881Z,46.48
2022-08-23T06:50:55.274Z,46.12
2022-08-23T06:53:21.645Z,45.84
2022-08-23T06:55:48.109Z,46.11
2022-08-23T06:58:14.507Z,48.05
2022-08-23T07:00:40.993Z,49.43
2022-08-23T07:03:07.383Z,47.58
2022-08-23T07:05:33.822Z,47.75
2022-08-23T07:08:00.205Z,46.87
2022-08-23T07:10:26.580Z,47.27
2022-08-23T07:12:52.972Z,46.55
2022-08-23T07:15:19.461Z,45.87
2022-08-23T07:17:45.889Z,45.97
2022-08-23T07:20:12.251Z,46.05
2022-08-23T07:22:38.647Z,46.43
2022-08-23T07:25:05.042Z,46.83
2022-08-23T07:27:31.515Z,45.94
2022-08-23T07:29:57.897Z,45.73
2022-08-23T07:32:24.289Z,45.33
2022-08-23T07:34:50.647Z,44.10
2022-08-23T07:37:17.018Z,46.57
2022-08-23T07:39:43.427Z,48.08
2022-08-23T07:42:23.041Z,47.71
2022-08-23T07:44:36.191Z,48.44
2022-08-23T07:47:02.570Z,49.23
2022-08-23T07:49:29.344Z,49.94
2022-08-23T07:51:55.372Z,51.64
2022-08-23T07:54:21.740Z,52.30
2022-08-23T07:56:48.143Z,52.04
2022-08-23T07:59:14.535Z,52.19
2022-08-23T08:01:40.909Z,53.15
2022-08-23T08:04:07.315Z,54.51
2022-08-23T08:06:33.701Z,54.55
2022-08-23T08:09:00.141Z,54.36
2022-08-23T08:11:29.701Z,52.99
2022-08-23T08:13:53.037Z,53.79
2022-08-23T08:16:19.494Z,54.41
2022-08-23T08:18:45.893Z,54.78
2022-08-23T08:21:12.328Z,55.35
2022-08-23T08:23:38.693Z,56.35
2022-08-23T08:26:05.549Z,55.38
2022-08-23T08:28:31.479Z,54.62
2022-08-23T08:30:57.863Z,55.11
2022-08-23T08:33:24.574Z,55.09
2022-08-23T08:35:56.194Z,54.45
2022-08-23T08:38:17.111Z,53.71
2022-08-23T08:40:43.496Z,53.57
2022-08-23T08:43:09.862Z,53.05
2022-08-23T08:45:36.244Z,53.80
2022-08-23T08:48:02.810Z,52.41
2022-08-23T08:50:28.987Z,52.17
2022-08-23T08:52:55.372Z,53.03
2022-08-23T08:55:21.780Z,52.99
2022-08-23T08:57:48.145Z,53.17
2022-08-23T09:00:14.507Z,53.48
2022-08-23T09:02:40.960Z,52.87
2022-08-23T09:05:07.316Z,53.18
2022-08-23T09:07:33.669Z,52.92
2022-08-23T09:10:00.042Z,52.71
2022-08-23T09:12:26.730Z,51.92
2022-08-23T09:14:53.119Z,50.37
2022-08-23T09:17:19.529Z,50.09
2022-08-23T09:19:45.897Z,50.38
2022-08-23T09:22:12.272Z,50.61
2022-08-23T09:24:39.734Z,49.42
2022-08-23T09:27:05.021Z,48.97
2022-08-23T09:29:31.508Z,49.23
2022-08-23T09:31:58.263Z,49.16
2022-08-23T09:34:24.301Z,49.16
2022-08-23T09:36:52.227Z,47.91
2022-08-23T09:39:17.069Z,46.78
2022-08-23T09:41:43.432Z,44.66
2022-08-23T09:44:09.810Z,43.38
2022-08-23T09:46:36.248Z,42.56
2022-08-23T09:49:02.586Z,42.67
2022-08-23T09:51:28.962Z,44.41
2022-08-23T09:53:55.372Z,46.13
2022-08-23T09:56:21.752Z,46.96
2022-08-23T09:58:48.218Z,47.19
2022-08-23T10:01:14.643Z,47.31
2022-08-23T10:03:41.090Z,46.04
2022-08-23T10:06:07.474Z,44.10
2022-08-23T10:08:33.951Z,43.65
2022-08-23T10:11:00.315Z,41.36
2022-08-23T10:13:26.711Z,40.30
2022-08-23T10:15:53.134Z,37.98
2022-08-23T10:18:19.476Z,38.03
2022-08-23T10:23:29.782Z,40.24
2022-08-23T10:25:56.150Z,41.67
2022-08-23T10:28:22.621Z,41.75
2022-08-23T10:30:49.096Z,40.09
2022-08-23T10:33:18.662Z,37.88
2022-08-23T10:35:42.029Z,38.71
2022-08-23T10:38:08.392Z,36.67
2022-08-23T10:40:34.820Z,36.18
2022-08-23T10:43:01.225Z,36.92
2022-08-23T10:45:27.703Z,36.82
2022-08-23T10:47:54.088Z,36.37
2022-08-23T10:50:20.519Z,36.14
2022-08-23T10:52:46.883Z,38.96
2022-08-23T10:55:13.251Z,39.30
2022-08-23T10:57:39.625Z,40.30
2022-08-23T11:00:06.041Z,40.84
2022-08-23T11:02:32.504Z,40.90
2022-08-23T11:04:58.862Z,41.44
2022-08-23T11:07:25.352Z,42.06
2022-08-23T11:09:51.786Z,42.21
2022-08-23T11:12:18.149Z,42.33
2022-08-23T11:14:44.545Z,42.39
2022-08-23T11:17:10.978Z,42.56
2022-08-23T11:19:37.361Z,42.50
2022-08-23T11:22:03.728Z,43.61
2022-08-23T11:24:30.129Z,44.07
2022-08-23T11:26:56.519Z,43.39
2022-08-23T11:29:23.078Z,43.92
2022-08-23T11:31:49.567Z,43.52
2022-08-23T11:34:15.981Z,42.70
2022-08-23T11:36:42.306Z,42.54
2022-08-23T11:39:08.671Z,42.53
2022-08-23T11:41:35.056Z,43.58
2022-08-23T11:44:01.491Z,43.33
2022-08-23T11:46:27.927Z,42.78
2022-08-23T11:48:54.250Z,43.58
2022-08-23T11:51:20.731Z,43.12
2022-08-23T11:53:47.092Z,43.13
2022-08-23T11:56:13.457Z,43.48
2022-08-23T11:58:39.941Z,43.26
2022-08-23T12:01:06.328Z,42.98
2022-08-23T12:03:32.801Z,42.56
2022-08-23T12:05:59.090Z,41.46
2022-08-23T12:08:25.462Z,40.21
2022-08-23T12:10:51.891Z,40.01
2022-08-23T12:13:18.283Z,41.69
2022-08-23T12:15:44.742Z,41.91
2022-08-23T12:18:11.044Z,42.16
2022-08-23T12:20:37.412Z,43.34
2022-08-23T12:23:03.811Z,42.35
2022-08-23T12:25:30.298Z,41.56
2022-08-23T12:27:56.705Z,42.54
2022-08-23T12:30:23.104Z,40.83
2022-08-23T12:32:49.488Z,40.91
2022-08-23T12:35:15.960Z,40.79
2022-08-23T12:37:42.367Z,41.21
2022-08-23T12:40:08.839Z,41.76
2022-08-23T12:42:35.136Z,43.22
2022-08-23T12:45:01.543Z,43.11
2022-08-23T12:47:27.988Z,42.93
2022-08-23T12:49:54.370Z,43.60
2022-08-23T12:52:20.835Z,44.79
2022-08-23T12:54:47.266Z,46.09
2022-08-23T12:57:13.643Z,46.00
2022-08-23T12:59:40.141Z,46.46
2022-08-23T13:02:06.560Z,46.95
2022-08-23T13:04:33.004Z,47.82
2022-08-23T13:06:59.369Z,47.89
2022-08-23T13:09:25.733Z,47.55
2022-08-23T13:11:52.111Z,47.30
2022-08-23T13:14:18.510Z,46.38
2022-08-23T13:16:44.868Z,46.60
2022-08-23T13:19:11.237Z,46.91
2022-08-23T13:21:39.760Z,46.19
2022-08-23T13:24:04.168Z,46.52
2022-08-23T13:26:30.601Z,47.27
2022-08-23T13:28:56.991Z,46.91
2022-08-23T13:31:23.501Z,45.96
2022-08-23T13:33:49.743Z,45.83
2022-08-23T13:36:16.124Z,45.85
2022-08-23T13:38:42.556Z,45.28
2022-08-23T13:41:08.918Z,46.72
2022-08-23T13:43:35.322Z,46.64
2022-08-23T13:46:01.795Z,46.47
2022-08-23T13:48:28.115Z,47.30
2022-08-23T13:50:54.517Z,47.26
2022-08-23T13:53:21.042Z,47.42
2022-08-23T13:55:47.285Z,47.16
2022-08-23T13:58:13.709Z,47.71
2022-08-23T14:00:40.149Z,47.77
2022-08-23T14:03:06.515Z,48.73
2022-08-23T14:05:33.095Z,49.32
2022-08-23T14:07:59.251Z,49.63
2022-08-23T14:10:25.641Z,49.88
2022-08-23T14:12:52.099Z,52.80
2022-08-23T14:15:18.468Z,55.14
2022-08-23T14:17:44.926Z,56.86
2022-08-23T14:22:37.645Z,62.08
2022-08-23T14:25:04.037Z,63.92
2022-08-23T14:27:30.443Z,65.12
2022-08-23T14:29:56.821Z,65.53
2022-08-23T14:32:23.263Z,67.61
2022-08-23T14:34:49.699Z,69.63
2022-08-23T14:39:42.481Z,70.69
2022-08-23T14:42:08.829Z,70.38
2022-08-23T14:44:36.274Z,70.91
2022-08-23T14:47:01.592Z,71.30
2022-08-23T14:49:28.003Z,71.72
2022-08-23T14:51:54.398Z,71.38
2022-08-23T14:54:20.849Z,71.04
2022-08-23T14:56:47.242Z,71.21
2022-08-23T14:59:13.656Z,74.18
2022-08-23T15:01:40.029Z,76.02
2022-08-23T15:04:06.516Z,76.03
2022-08-23T15:06:32.835Z,76.47
2022-08-23T15:08:59.208Z,75.84
2022-08-23T15:13:54.906Z,75.37
2022-08-23T15:16:18.381Z,75.32
2022-08-23T15:18:44.721Z,74.85
2022-08-23T15:21:11.091Z,74.62
2022-08-23T15:23:37.513Z,75.69
2022-08-23T15:26:04.134Z,75.99
2022-08-23T15:28:30.717Z,75.72
2022-08-23T15:30:57.387Z,75.10
2022-08-23T15:33:30.693Z,74.88
2022-08-23T15:35:50.606Z,74.41
2022-08-23T15:38:17.898Z,74.33
2022-08-23T15:40:43.756Z,74.22
2022-08-23T15:43:10.413Z,74.72
2022-08-23T15:45:37.012Z,74.56
2022-08-23T15:48:03.600Z,74.88
2022-08-23T15:50:30.225Z,76.02
2022-08-23T15:52:56.881Z,75.50
2022-08-23T15:55:23.498Z,76.27
2022-08-23T15:57:50.239Z,76.84
2022-08-23T16:00:16.831Z,75.76
2022-08-23T16:03:06.615Z,73.84
2022-08-23T16:05:10.053Z,73.25
2022-08-23T16:07:36.679Z,74.16
2022-08-23T16:10:03.317Z,73.09
2022-08-23T16:12:29.965Z,73.36
2022-08-23T16:14:56.293Z,74.24
2022-08-23T16:17:22.725Z,74.04
2022-08-23T16:19:49.178Z,73.56
2022-08-23T16:22:15.639Z,71.96
2022-08-23T16:24:42.153Z,73.68
2022-08-23T16:27:08.518Z,74.00
2022-08-23T16:29:34.908Z,74.76
2022-08-23T16:32:01.360Z,74.75
2022-08-23T16:34:27.871Z,75.27
2022-08-23T16:36:54.950Z,75.95
2022-08-23T16:39:20.667Z,76.49
2022-08-23T16:41:47.085Z,77.41
2022-08-23T16:44:13.511Z,77.60
2022-08-23T16:46:41.192Z,79.11
2022-08-23T16:49:06.257Z,79.33
2022-08-23T16:51:32.664Z,79.05
2022-08-23T16:54:02.739Z,78.48
2022-08-23T16:56:25.486Z,78.62
2022-08-23T16:58:51.845Z,78.19
2022-08-23T17:01:18.274Z,78.38
2022-08-23T17:03:44.647Z,78.68
2022-08-23T17:06:11.011Z,78.33
2022-08-23T17:08:37.408Z,77.80
2022-08-23T17:11:03.823Z,78.43
2022-08-23T17:13:30.186Z,79.15
2022-08-23T17:15:56.635Z,79.82
2022-08-23T17:18:23.018Z,80.84
2022-08-23T17:20:49.418Z,80.45
2022-08-23T17:23:15.771Z,80.35
2022-08-23T17:25:42.309Z,80.03
2022-08-23T17:28:08.670Z,80.49
2022-08-23T17:30:35.062Z,81.60
2022-08-23T17:33:01.651Z,82.23
2022-08-23T17:35:27.817Z,81.66
2022-08-23T17:37:54.183Z,81.97
2022-08-23T17:40:21.296Z,82.07
2022-08-23T17:42:47.026Z,82.20
2022-08-23T17:45:13.527Z,82.29
2022-08-23T17:47:39.928Z,82.54
2022-08-23T17:50:06.305Z,82.79
2022-08-23T17:52:32.708Z,84.72
2022-08-23T17:54:59.105Z,84.80
2022-08-23T17:57:25.535Z,80.11
2022-08-23T17:59:51.933Z,80.43
2022-08-23T18:02:18.327Z,79.16
2022-08-23T18:04:44.734Z,79.42
2022-08-23T18:07:11.115Z,80.24
2022-08-23T18:09:43.741Z,78.92
2022-08-23T18:12:03.851Z,77.39
2022-08-23T18:14:30.257Z,78.02
2022-08-23T18:16:56.650Z,76.13
2022-08-23T18:19:23.012Z,77.43
2022-08-23T18:21:49.408Z,76.13
2022-08-23T18:24:15.841Z,76.94
2022-08-23T18:26:42.982Z,78.12
2022-08-23T18:29:08.651Z,78.51
2022-08-23T18:31:35.064Z,77.32
2022-08-23T18:34:01.470Z,77.66
2022-08-23T18:36:27.876Z,78.92
2022-08-23T18:38:54.333Z,80.41
2022-08-23T18:41:20.823Z,81.35
2022-08-23T18:43:47.189Z,82.41
2022-08-23T18:46:13.641Z,81.90
2022-08-23T18:48:39.964Z,82.68
2022-08-23T18:51:06.449Z,82.35
2022-08-23T18:53:32.841Z,83.38
2022-08-23T18:55:59.201Z,84.27
2022-08-23T18:58:25.569Z,82.40
2022-08-23T19:00:52.192Z,82.01
2022-08-23T19:03:18.406Z,83.02
2022-08-23T19:05:44.893Z,84.07
2022-08-23T19:08:11.271Z,85.13
2022-08-23T19:10:37.654Z,85.27
2022-08-23T19:13:04.293Z,84.46
2022-08-23T19:15:30.425Z,84.35
2022-08-23T19:17:56.860Z,84.57
2022-08-23T19:20:23.226Z,84.67
2022-08-23T19:22:49.632Z,84.47
2022-08-23T19:25:15.993Z,83.91
2022-08-23T19:27:42.376Z,83.66
2022-08-23T19:30:08.764Z,83.38
2022-08-23T19:32:35.125Z,83.19
2022-08-23T19:35:01.510Z,82.95
2022-08-23T19:37:27.877Z,82.78
2022-08-23T19:39:54.309Z,83.25
2022-08-23T19:42:20.652Z,83.62
2022-08-23T19:44:47.060Z,84.26
2022-08-23T19:47:20.193Z,84.55
2022-08-23T19:49:39.812Z,85.00
2022-08-23T19:52:06.198Z,84.92
2022-08-23T19:54:32.557Z,84.49
2022-08-23T19:56:58.926Z,84.33
2022-08-23T19:59:25.375Z,84.58
2022-08-23T20:01:51.931Z,84.77
2022-08-23T20:04:18.265Z,84.41
2022-08-23T20:06:44.694Z,85.23
2022-08-23T20:09:11.056Z,86.01
2022-08-23T20:11:37.462Z,86.29
2022-08-23T20:14:05.287Z,86.07
2022-08-23T20:16:30.310Z,86.05
2022-08-23T20:18:56.628Z,86.21
2022-08-23T20:21:23.573Z,86.12
2022-08-23T20:23:49.463Z,86.02
2022-08-23T20:26:15.829Z,85.35
2022-08-23T20:28:59.133Z,85.37
2022-08-23T20:31:08.781Z,85.54
2022-08-23T20:33:35.126Z,85.66
2022-08-23T20:36:01.525Z,85.75
2022-08-23T20:38:33.802Z,85.28
2022-08-23T20:40:54.329Z,85.43
2022-08-23T20:43:20.733Z,84.99
2022-08-23T20:45:47.737Z,84.11
2022-08-23T20:48:13.471Z,83.82
2022-08-23T20:50:39.978Z,83.73
2022-08-23T20:53:06.411Z,83.72
2022-08-23T20:55:32.847Z,83.69
2022-08-23T20:57:59.235Z,83.74
2022-08-23T21:00:25.701Z,83.30
2022-08-23T21:02:51.983Z,83.66
2022-08-23T21:05:18.356Z,84.04
2022-08-23T21:07:44.720Z,84.25
2022-08-23T21:10:11.137Z,84.17
2022-08-23T21:12:37.570Z,83.99
2022-08-23T21:15:05.949Z,83.69
2022-08-23T21:17:30.427Z,83.62
2022-08-23T21:19:56.798Z,83.64
2022-08-23T21:22:23.201Z,84.32
2022-08-23T21:24:49.631Z,84.22
2022-08-23T21:27:15.997Z,84.82
2022-08-23T21:29:42.380Z,84.81
2022-08-23T21:32:08.768Z,85.29
2022-08-23T21:34:35.171Z,85.39
2022-08-23T21:37:01.592Z,85.73
2022-08-23T21:39:28.026Z,85.73
2022-08-23T21:41:54.441Z,85.58
2022-08-23T21:44:20.811Z,85.80
2022-08-23T21:46:47.194Z,86.35
2022-08-23T21:49:13.580Z,86.49
2022-08-23T21:51:39.944Z,86.64
2022-08-23T21:54:06.347Z,86.86
2022-08-23T21:56:32.745Z,87.17
2022-08-23T21:58:59.186Z,86.37
2022-08-23T22:01:25.585Z,85.96
2022-08-23T22:03:56.661Z,85.91
2022-08-23T22:06:18.330Z,86.03
2022-08-23T22:08:44.727Z,86.73
2022-08-23T22:11:11.104Z,87.34
2022-08-23T22:13:37.493Z,87.53
2022-08-23T22:16:03.927Z,87.36
2022-08-23T22:18:30.283Z,86.97
2022-08-23T22:20:56.664Z,86.30
2022-08-23T22:23:23.106Z,86.48
2022-08-23T22:25:49.535Z,86.61
2022-08-23T22:28:15.910Z,86.36
2022-08-23T22:30:42.409Z,86.44
2022-08-23T22:33:08.733Z,86.66
2022-08-23T22:35:35.121Z,86.47
2022-08-23T22:38:13.729Z,86.65
2022-08-23T22:40:27.923Z,86.24
2022-08-23T22:42:54.236Z,85.88
2022-08-23T22:45:20.601Z,85.44
2022-08-23T22:47:47.019Z,85.04
2022-08-23T22:50:13.459Z,84.81
2022-08-23T22:52:39.830Z,84.37
2022-08-23T22:55:06.218Z,84.45
2022-08-23T22:57:32.598Z,84.39
2022-08-23T22:59:58.964Z,84.21
2022-08-23T23:02:25.350Z,83.97
2022-08-23T23:04:51.749Z,83.88
2022-08-23T23:07:18.115Z,84.39
2022-08-23T23:09:44.530Z,84.67
2022-08-23T23:12:10.946Z,84.53
2022-08-23T23:14:37.385Z,84.48
2022-08-23T23:17:03.931Z,84.09
2022-08-23T23:19:30.177Z,83.70
2022-08-23T23:21:56.543Z,83.32
2022-08-23T23:24:22.927Z,83.07
2022-08-23T23:26:49.295Z,83.01
2022-08-23T23:29:15.661Z,82.89
2022-08-23T23:31:42.067Z,82.38
2022-08-23T23:34:08.537Z,82.10
2022-08-23T23:36:34.903Z,82.62
2022-08-23T23:39:01.401Z,83.08
2022-08-23T23:41:27.843Z,83.14
2022-08-23T23:43:54.266Z,83.00
2022-08-23T23:46:20.709Z,83.23
2022-08-23T23:48:47.134Z,83.47
2022-08-23T23:51:13.523Z,83.33
2022-08-23T23:53:39.916Z,83.34
2022-08-23T23:56:06.294Z,84.27
2022-08-23T23:58:32.652Z,85.07
